sensor_id;sensor_type;location;lat;lon;timestamp;pressure;altitude;pressure_sealevel;temperature;humidity
21594;BME280;10959;51.328;7.322;2023-05-08T00:01:51;73980.97;;;-147.06;59.46
21594;BME280;10959;51.328;7.322;2023-05-08T00:04:18;73974.81;;;-147.06;59.44
21594;BME280;10959;51.328;7.322;2023-05-08T00:06:46;73983.03;;;-147.06;59.36
21594;BME280;10959;51.328;7.322;2023-05-08T00:09:12;73987.13;;;-147.06;59.66
21594;BME280;10959;51.328;7.322;2023-05-08T00:11:39;73989.16;;;-147.06;59.67
21594;BME280;10959;51.328;7.322;2023-05-08T00:14:05;73991.22;;;-147.06;59.65
21594;BME280;10959;51.328;7.322;2023-05-08T00:16:32;73991.22;;;-147.06;59.81
21594;BME280;10959;51.328;7.322;2023-05-08T00:18:58;73999.41;;;-147.06;59.88
21594;BME280;10959;51.328;7.322;2023-05-08T00:21:25;74007.59;;;-147.06;60.05
21594;BME280;10959;51.328;7.322;2023-05-08T00:23:53;74007.59;;;-147.06;60.17
21594;BME280;10959;51.328;7.322;2023-05-08T00:26:20;74007.59;;;-147.06;60.06
21594;BME280;10959;51.328;7.322;2023-05-08T00:28:46;74011.69;;;-147.06;59.97
21594;BME280;10959;51.328;7.322;2023-05-08T00:31:13;74003.50;;;-147.06;59.81
21594;BME280;10959;51.328;7.322;2023-05-08T00:33:40;74015.78;;;-147.06;59.83
21594;BME280;10959;51.328;7.322;2023-05-08T00:36:07;74015.78;;;-147.06;59.75
21594;BME280;10959;51.328;7.322;2023-05-08T00:38:34;74015.78;;;-147.06;59.71
21594;BME280;10959;51.328;7.322;2023-05-08T00:41:02;74013.75;;;-147.06;59.65
21594;BME280;10959;51.328;7.322;2023-05-08T00:43:29;74019.91;;;-147.06;59.71
21594;BME280;10959;51.328;7.322;2023-05-08T00:45:57;74011.69;;;-147.06;59.67
21594;BME280;10959;51.328;7.322;2023-05-08T00:48:27;74019.91;;;-147.06;59.67
21594;BME280;10959;51.328;7.322;2023-05-08T00:50:54;74019.91;;;-147.06;59.74
21594;BME280;10959;51.328;7.322;2023-05-08T00:53:22;74021.94;;;-147.06;59.61
21594;BME280;10959;51.328;7.322;2023-05-08T00:55:49;74019.91;;;-147.06;59.58
21594;BME280;10959;51.328;7.322;2023-05-08T00:58:17;74019.91;;;-147.06;59.58
21594;BME280;10959;51.328;7.322;2023-05-08T01:00:45;74019.91;;;-147.06;59.53
21594;BME280;10959;51.328;7.322;2023-05-08T01:03:12;74024.00;;;-147.06;59.60
21594;BME280;10959;51.328;7.322;2023-05-08T01:05:39;74024.00;;;-147.06;59.65
21594;BME280;10959;51.328;7.322;2023-05-08T01:08:06;74021.94;;;-147.06;59.55
21594;BME280;10959;51.328;7.322;2023-05-08T01:10:41;74040.38;;;-147.06;59.50
21594;BME280;10959;51.328;7.322;2023-05-08T01:13:19;74040.38;;;-147.06;59.71
21594;BME280;10959;51.328;7.322;2023-05-08T01:15:56;74034.22;;;-147.06;59.78
21594;BME280;10959;51.328;7.322;2023-05-08T01:18:39;74034.22;;;-147.06;59.83
21594;BME280;10959;51.328;7.322;2023-05-08T01:21:13;74038.34;;;-147.06;59.92
21594;BME280;10959;51.328;7.322;2023-05-08T01:23:55;74056.78;;;-147.06;59.95
21594;BME280;10959;51.328;7.322;2023-05-08T01:27:09;74081.34;;;-147.06;60.08
21594;BME280;10959;51.328;7.322;2023-05-08T01:29:58;74075.22;;;-147.06;60.02
21594;BME280;10959;51.328;7.322;2023-05-08T01:32:34;74048.56;;;-147.06;59.85
21594;BME280;10959;51.328;7.322;2023-05-08T01:35:20;74060.88;;;-147.06;59.91
21594;BME280;10959;51.328;7.322;2023-05-08T01:37:51;74048.56;;;-147.06;59.94
21594;BME280;10959;51.328;7.322;2023-05-08T01:40:30;74056.78;;;-147.06;60.08
21594;BME280;10959;51.328;7.322;2023-05-08T01:43:05;74056.78;;;-147.06;60.12
21594;BME280;10959;51.328;7.322;2023-05-08T01:45:38;74052.66;;;-147.06;60.15
21594;BME280;10959;51.328;7.322;2023-05-08T01:48:09;74052.66;;;-147.06;59.89
21594;BME280;10959;51.328;7.322;2023-05-08T01:50:40;74048.56;;;-147.06;59.85
21594;BME280;10959;51.328;7.322;2023-05-08T01:53:16;74052.66;;;-147.06;59.81
21594;BME280;10959;51.328;7.322;2023-05-08T01:55:46;74040.38;;;-147.06;59.95
21594;BME280;10959;51.328;7.322;2023-05-08T01:58:13;74044.47;;;-147.06;60.19
21594;BME280;10959;51.328;7.322;2023-05-08T02:00:41;74056.78;;;-147.06;60.26
21594;BME280;10959;51.328;7.322;2023-05-08T02:03:12;74056.78;;;-147.06;60.44
21594;BME280;10959;51.328;7.322;2023-05-08T02:05:40;74054.72;;;-147.06;60.40
21594;BME280;10959;51.328;7.322;2023-05-08T02:08:10;74060.88;;;-147.06;60.39
21594;BME280;10959;51.328;7.322;2023-05-08T02:10:38;74044.47;;;-147.06;60.52
21594;BME280;10959;51.328;7.322;2023-05-08T02:13:07;74056.78;;;-147.06;60.58
21594;BME280;10959;51.328;7.322;2023-05-08T02:15:36;74060.88;;;-147.06;60.52
21594;BME280;10959;51.328;7.322;2023-05-08T02:18:06;74056.78;;;-147.06;60.49
21594;BME280;10959;51.328;7.322;2023-05-08T02:20:34;74060.88;;;-147.06;60.42
21594;BME280;10959;51.328;7.322;2023-05-08T02:23:01;74064.97;;;-147.06;60.39
21594;BME280;10959;51.328;7.322;2023-05-08T02:25:29;74060.88;;;-147.06;60.41
21594;BME280;10959;51.328;7.322;2023-05-08T02:27:57;74062.91;;;-147.06;60.35
21594;BME280;10959;51.328;7.322;2023-05-08T02:30:24;74062.91;;;-147.06;60.24
21594;BME280;10959;51.328;7.322;2023-05-08T02:32:52;74060.88;;;-147.06;60.28
21594;BME280;10959;51.328;7.322;2023-05-08T02:35:22;74056.78;;;-147.06;60.26
21594;BME280;10959;51.328;7.322;2023-05-08T02:37:54;74064.97;;;-147.06;60.13
21594;BME280;10959;51.328;7.322;2023-05-08T02:40:22;74064.97;;;-147.06;60.15
21594;BME280;10959;51.328;7.322;2023-05-08T02:42:50;74069.06;;;-147.06;60.17
21594;BME280;10959;51.328;7.322;2023-05-08T02:45:16;74069.06;;;-147.06;60.18
21594;BME280;10959;51.328;7.322;2023-05-08T02:47:46;74077.25;;;-147.06;60.42
21594;BME280;10959;51.328;7.322;2023-05-08T02:50:20;74073.16;;;-147.06;60.17
21594;BME280;10959;51.328;7.322;2023-05-08T02:52:50;74077.25;;;-147.06;60.15
21594;BME280;10959;51.328;7.322;2023-05-08T02:55:32;74091.59;;;-147.06;60.49
21594;BME280;10959;51.328;7.322;2023-05-08T02:58:06;74085.44;;;-147.06;60.50
21594;BME280;10959;51.328;7.322;2023-05-08T03:00:39;74085.44;;;-147.06;60.36
21594;BME280;10959;51.328;7.322;2023-05-08T03:03:12;74085.44;;;-147.06;60.44
21594;BME280;10959;51.328;7.322;2023-05-08T03:05:45;74089.53;;;-147.06;60.51
21594;BME280;10959;51.328;7.322;2023-05-08T03:08:14;74073.16;;;-147.06;60.46
21594;BME280;10959;51.328;7.322;2023-05-08T03:10:44;74079.31;;;-147.06;60.35
21594;BME280;10959;51.328;7.322;2023-05-08T03:13:12;74073.16;;;-147.06;60.47
21594;BME280;10959;51.328;7.322;2023-05-08T03:15:43;74073.16;;;-147.06;60.35
21594;BME280;10959;51.328;7.322;2023-05-08T03:18:13;74081.34;;;-147.06;60.37
21594;BME280;10959;51.328;7.322;2023-05-08T03:20:43;74081.34;;;-147.06;60.39
21594;BME280;10959;51.328;7.322;2023-05-08T03:23:11;74081.34;;;-147.06;60.54
21594;BME280;10959;51.328;7.322;2023-05-08T03:25:40;74077.25;;;-147.06;60.51
21594;BME280;10959;51.328;7.322;2023-05-08T03:28:08;74079.31;;;-147.06;60.38
21594;BME280;10959;51.328;7.322;2023-05-08T03:30:36;74087.50;;;-147.06;60.79
21594;BME280;10959;51.328;7.322;2023-05-08T03:33:03;74081.34;;;-147.06;60.56
21594;BME280;10959;51.328;7.322;2023-05-08T03:35:34;74085.44;;;-147.06;60.41
21594;BME280;10959;51.328;7.322;2023-05-08T03:38:01;74089.53;;;-147.06;60.56
21594;BME280;10959;51.328;7.322;2023-05-08T03:40:28;74085.44;;;-147.06;60.69
21594;BME280;10959;51.328;7.322;2023-05-08T03:42:55;74085.44;;;-147.06;60.60
21594;BME280;10959;51.328;7.322;2023-05-08T03:45:24;74089.53;;;-147.06;60.48
21594;BME280;10959;51.328;7.322;2023-05-08T03:47:52;74085.44;;;-147.06;60.61
21594;BME280;10959;51.328;7.322;2023-05-08T03:50:19;74085.44;;;-147.06;60.56
21594;BME280;10959;51.328;7.322;2023-05-08T03:52:46;74081.34;;;-147.06;60.56
21594;BME280;10959;51.328;7.322;2023-05-08T03:55:13;74083.41;;;-147.06;60.57
21594;BME280;10959;51.328;7.322;2023-05-08T03:57:45;74091.59;;;-147.06;60.27
21594;BME280;10959;51.328;7.322;2023-05-08T04:00:20;74093.66;;;-147.06;60.28
21594;BME280;10959;51.328;7.322;2023-05-08T04:02:51;74091.59;;;-147.06;60.34
21594;BME280;10959;51.328;7.322;2023-05-08T04:05:25;74089.53;;;-147.06;60.42
21594;BME280;10959;51.328;7.322;2023-05-08T04:08:02;74093.66;;;-147.06;60.40
21594;BME280;10959;51.328;7.322;2023-05-08T04:10:36;74093.66;;;-147.06;60.40
21594;BME280;10959;51.328;7.322;2023-05-08T04:13:07;74089.53;;;-147.06;60.54
21594;BME280;10959;51.328;7.322;2023-05-08T04:15:47;74122.31;;;-147.06;60.47
21594;BME280;10959;51.328;7.322;2023-05-08T04:18:17;74105.94;;;-147.06;60.45
21594;BME280;10959;51.328;7.322;2023-05-08T04:20:48;74101.84;;;-147.06;60.67
21594;BME280;10959;51.328;7.322;2023-05-08T04:23:17;74110.03;;;-147.06;60.81
21594;BME280;10959;51.328;7.322;2023-05-08T04:25:46;74105.94;;;-147.06;60.72
21594;BME280;10959;51.328;7.322;2023-05-08T04:28:14;74103.88;;;-147.06;60.81
21594;BME280;10959;51.328;7.322;2023-05-08T04:30:41;74101.84;;;-147.06;60.82
21594;BME280;10959;51.328;7.322;2023-05-08T04:33:08;74105.94;;;-147.06;60.70
21594;BME280;10959;51.328;7.322;2023-05-08T04:35:36;74105.94;;;-147.06;60.50
21594;BME280;10959;51.328;7.322;2023-05-08T04:38:02;74105.94;;;-147.06;60.61
21594;BME280;10959;51.328;7.322;2023-05-08T04:40:29;74105.94;;;-147.06;60.66
21594;BME280;10959;51.328;7.322;2023-05-08T04:42:56;74110.03;;;-147.06;60.49
21594;BME280;10959;51.328;7.322;2023-05-08T04:45:23;74101.84;;;-147.06;60.58
21594;BME280;10959;51.328;7.322;2023-05-08T04:47:49;74101.84;;;-147.06;60.44
21594;BME280;10959;51.328;7.322;2023-05-08T04:50:16;74101.84;;;-147.06;60.64
21594;BME280;10959;51.328;7.322;2023-05-08T04:52:44;74101.84;;;-147.06;60.33
21594;BME280;10959;51.328;7.322;2023-05-08T04:55:10;74110.03;;;-147.06;60.52
21594;BME280;10959;51.328;7.322;2023-05-08T04:57:37;74110.03;;;-147.06;60.33
21594;BME280;10959;51.328;7.322;2023-05-08T05:00:05;74105.94;;;-147.06;60.29
21594;BME280;10959;51.328;7.322;2023-05-08T05:02:32;74110.03;;;-147.06;60.54
21594;BME280;10959;51.328;7.322;2023-05-08T05:04:58;74107.97;;;-147.06;60.42
21594;BME280;10959;51.328;7.322;2023-05-08T05:07:25;74105.94;;;-147.06;60.47
21594;BME280;10959;51.328;7.322;2023-05-08T05:09:53;74103.88;;;-147.06;60.38
21594;BME280;10959;51.328;7.322;2023-05-08T05:12:20;74105.94;;;-147.06;60.54
21594;BME280;10959;51.328;7.322;2023-05-08T05:14:46;74107.97;;;-147.06;60.65
21594;BME280;10959;51.328;7.322;2023-05-08T05:17:13;74110.03;;;-147.06;60.67
21594;BME280;10959;51.328;7.322;2023-05-08T05:19:39;74110.03;;;-147.06;60.77
21594;BME280;10959;51.328;7.322;2023-05-08T05:22:06;74116.19;;;-147.06;60.86
21594;BME280;10959;51.328;7.322;2023-05-08T05:24:32;74110.03;;;-147.06;60.64
21594;BME280;10959;51.328;7.322;2023-05-08T05:27:01;74105.94;;;-147.06;60.48
21594;BME280;10959;51.328;7.322;2023-05-08T05:29:28;74105.94;;;-147.06;60.56
21594;BME280;10959;51.328;7.322;2023-05-08T05:31:55;74105.94;;;-147.06;60.42
21594;BME280;10959;51.328;7.322;2023-05-08T05:34:21;74110.03;;;-147.06;60.38
21594;BME280;10959;51.328;7.322;2023-05-08T05:36:48;74107.97;;;-147.06;60.27
21594;BME280;10959;51.328;7.322;2023-05-08T05:39:14;74097.75;;;-147.06;60.28
21594;BME280;10959;51.328;7.322;2023-05-08T05:41:41;74101.84;;;-147.06;60.15
21594;BME280;10959;51.328;7.322;2023-05-08T05:44:09;74091.59;;;-147.06;60.20
21594;BME280;10959;51.328;7.322;2023-05-08T05:46:36;74085.44;;;-147.06;60.25
21594;BME280;10959;51.328;7.322;2023-05-08T05:49:02;74085.44;;;-147.06;60.17
21594;BME280;10959;51.328;7.322;2023-05-08T05:51:29;74085.44;;;-147.06;60.26
21594;BME280;10959;51.328;7.322;2023-05-08T05:53:55;74079.31;;;-147.06;60.28
21594;BME280;10959;51.328;7.322;2023-05-08T05:56:22;74081.34;;;-147.06;60.33
21594;BME280;10959;51.328;7.322;2023-05-08T05:58:48;74081.34;;;-147.06;60.26
21594;BME280;10959;51.328;7.322;2023-05-08T06:01:17;74077.25;;;-147.06;60.21
21594;BME280;10959;51.328;7.322;2023-05-08T06:03:43;74077.25;;;-147.06;60.31
21594;BME280;10959;51.328;7.322;2023-05-08T06:06:10;74069.06;;;-147.06;60.15
21594;BME280;10959;51.328;7.322;2023-05-08T06:08:36;74073.16;;;-147.06;60.01
21594;BME280;10959;51.328;7.322;2023-05-08T06:11:03;74069.06;;;-147.06;60.04
21594;BME280;10959;51.328;7.322;2023-05-08T06:13:29;74060.88;;;-147.06;59.74
21594;BME280;10959;51.328;7.322;2023-05-08T06:15:56;74060.88;;;-147.06;59.67
21594;BME280;10959;51.328;7.322;2023-05-08T06:18:23;74052.66;;;-147.06;59.59
21594;BME280;10959;51.328;7.322;2023-05-08T06:20:55;74052.66;;;-147.06;59.55
21594;BME280;10959;51.328;7.322;2023-05-08T06:23:21;74048.56;;;-147.06;59.71
21594;BME280;10959;51.328;7.322;2023-05-08T06:25:48;74048.56;;;-147.06;59.83
21594;BME280;10959;51.328;7.322;2023-05-08T06:28:14;74042.44;;;-147.06;59.63
21594;BME280;10959;51.328;7.322;2023-05-08T06:30:41;74040.38;;;-147.06;59.71
21594;BME280;10959;51.328;7.322;2023-05-08T06:33:07;74032.19;;;-147.06;59.64
21594;BME280;10959;51.328;7.322;2023-05-08T06:35:35;74030.13;;;-147.06;59.59
21594;BME280;10959;51.328;7.322;2023-05-08T06:38:02;74015.78;;;-147.06;59.62
21594;BME280;10959;51.328;7.322;2023-05-08T06:40:28;74017.84;;;-147.06;59.58
21594;BME280;10959;51.328;7.322;2023-05-08T06:42:55;74015.78;;;-147.06;59.44
21594;BME280;10959;51.328;7.322;2023-05-08T06:45:21;74019.91;;;-147.06;59.50
21594;BME280;10959;51.328;7.322;2023-05-08T06:47:48;74019.91;;;-147.06;59.55
21594;BME280;10959;51.328;7.322;2023-05-08T06:50:14;74017.84;;;-147.06;59.49
21594;BME280;10959;51.328;7.322;2023-05-08T06:52:42;74019.91;;;-147.06;59.42
21594;BME280;10959;51.328;7.322;2023-05-08T06:55:09;74013.75;;;-147.06;59.53
21594;BME280;10959;51.328;7.322;2023-05-08T06:57:35;74017.84;;;-147.06;59.43
21594;BME280;10959;51.328;7.322;2023-05-08T07:00:02;74011.69;;;-147.06;59.44
21594;BME280;10959;51.328;7.322;2023-05-08T07:02:29;74015.78;;;-147.06;59.46
21594;BME280;10959;51.328;7.322;2023-05-08T07:04:55;74019.91;;;-147.06;59.49
21594;BME280;10959;51.328;7.322;2023-05-08T07:07:22;74007.59;;;-147.06;59.47
21594;BME280;10959;51.328;7.322;2023-05-08T07:09:49;74003.50;;;-147.06;59.41
21594;BME280;10959;51.328;7.322;2023-05-08T07:12:16;74001.47;;;-147.06;59.46
21594;BME280;10959;51.328;7.322;2023-05-08T07:14:42;73993.25;;;-147.06;59.47
21594;BME280;10959;51.328;7.322;2023-05-08T07:17:09;73991.22;;;-147.06;59.54
21594;BME280;10959;51.328;7.322;2023-05-08T07:19:36;73987.13;;;-147.06;59.56
21594;BME280;10959;51.328;7.322;2023-05-08T07:22:03;73978.91;;;-147.06;59.67
21594;BME280;10959;51.328;7.322;2023-05-08T07:24:30;73991.22;;;-147.06;59.51
21594;BME280;10959;51.328;7.322;2023-05-08T07:26:58;73983.03;;;-147.06;59.54
21594;BME280;10959;51.328;7.322;2023-05-08T07:29:24;73983.03;;;-147.06;59.57
21594;BME280;10959;51.328;7.322;2023-05-08T07:31:51;73974.81;;;-147.06;59.53
21594;BME280;10959;51.328;7.322;2023-05-08T07:34:17;73970.72;;;-147.06;59.53
21594;BME280;10959;51.328;7.322;2023-05-08T07:36:44;73966.63;;;-147.06;59.27
21594;BME280;10959;51.328;7.322;2023-05-08T07:39:10;73954.34;;;-147.06;59.54
21594;BME280;10959;51.328;7.322;2023-05-08T07:41:37;73950.25;;;-147.06;59.45
21594;BME280;10959;51.328;7.322;2023-05-08T07:44:06;73954.34;;;-147.06;58.99
21594;BME280;10959;51.328;7.322;2023-05-08T07:46:32;73952.28;;;-147.06;58.95
21594;BME280;10959;51.328;7.322;2023-05-08T07:48:59;73946.16;;;-147.06;59.03
21594;BME280;10959;51.328;7.322;2023-05-08T07:51:25;73946.16;;;-147.06;59.00
21594;BME280;10959;51.328;7.322;2023-05-08T07:53:52;73933.84;;;-147.06;59.07
21594;BME280;10959;51.328;7.322;2023-05-08T07:56:19;73927.72;;;-147.06;58.97
21594;BME280;10959;51.328;7.322;2023-05-08T07:58:46;73931.81;;;-147.06;59.03
21594;BME280;10959;51.328;7.322;2023-05-08T08:01:13;73925.66;;;-147.06;58.83
21594;BME280;10959;51.328;7.322;2023-05-08T08:03:42;73927.72;;;-147.06;58.73
21594;BME280;10959;51.328;7.322;2023-05-08T08:06:08;73935.91;;;-147.06;58.76
21594;BME280;10959;51.328;7.322;2023-05-08T08:08:34;73933.84;;;-147.06;58.61
21594;BME280;10959;51.328;7.322;2023-05-08T08:11:01;73942.06;;;-147.06;58.59
21594;BME280;10959;51.328;7.322;2023-05-08T08:13:27;73942.06;;;-147.06;58.32
21594;BME280;10959;51.328;7.322;2023-05-08T08:15:54;73942.06;;;-147.06;58.32
21594;BME280;10959;51.328;7.322;2023-05-08T08:18:22;73946.16;;;-147.06;58.32
21594;BME280;10959;51.328;7.322;2023-05-08T08:20:49;73942.06;;;-147.06;58.28
21594;BME280;10959;51.328;7.322;2023-05-08T08:23:15;73942.06;;;-147.06;58.46
21594;BME280;10959;51.328;7.322;2023-05-08T08:25:42;73942.06;;;-147.06;58.41
21594;BME280;10959;51.328;7.322;2023-05-08T08:28:08;73946.16;;;-147.06;58.34
21594;BME280;10959;51.328;7.322;2023-05-08T08:30:34;73935.91;;;-147.06;58.13
21594;BME280;10959;51.328;7.322;2023-05-08T08:33:01;73942.06;;;-147.06;58.16
21594;BME280;10959;51.328;7.322;2023-05-08T08:35:29;73933.84;;;-147.06;58.17
21594;BME280;10959;51.328;7.322;2023-05-08T08:37:55;73933.84;;;-147.06;58.09
21594;BME280;10959;51.328;7.322;2023-05-08T08:40:23;73927.72;;;-147.06;57.86
21594;BME280;10959;51.328;7.322;2023-05-08T08:42:50;73925.66;;;-147.06;58.14
21594;BME280;10959;51.328;7.322;2023-05-08T08:45:16;73921.56;;;-147.06;57.81
21594;BME280;10959;51.328;7.322;2023-05-08T08:47:43;73919.50;;;-147.06;57.60
21594;BME280;10959;51.328;7.322;2023-05-08T08:50:12;73909.28;;;-147.06;57.43
21594;BME280;10959;51.328;7.322;2023-05-08T08:52:46;73925.66;;;-147.06;57.62
21594;BME280;10959;51.328;7.322;2023-05-08T08:55:14;73911.31;;;-147.06;57.34
21594;BME280;10959;51.328;7.322;2023-05-08T08:57:49;73925.66;;;-147.06;57.40
21594;BME280;10959;51.328;7.322;2023-05-08T09:00:18;73921.56;;;-147.06;57.32
21594;BME280;10959;51.328;7.322;2023-05-08T09:02:46;73911.31;;;-147.06;57.38
21594;BME280;10959;51.328;7.322;2023-05-08T09:05:13;73915.41;;;-147.06;56.94
21594;BME280;10959;51.328;7.322;2023-05-08T09:07:41;73921.56;;;-147.06;56.96
21594;BME280;10959;51.328;7.322;2023-05-08T09:10:09;73917.47;;;-147.06;57.05
21594;BME280;10959;51.328;7.322;2023-05-08T09:12:39;73915.41;;;-147.06;57.13
21594;BME280;10959;51.328;7.322;2023-05-08T09:15:06;73896.97;;;-147.06;57.22
21594;BME280;10959;51.328;7.322;2023-05-08T09:17:32;73886.75;;;-147.06;57.47
21594;BME280;10959;51.328;7.322;2023-05-08T09:19:59;73876.50;;;-147.06;57.02
21594;BME280;10959;51.328;7.322;2023-05-08T09:22:26;73864.19;;;-147.06;57.05
21594;BME280;10959;51.328;7.322;2023-05-08T09:24:56;73864.19;;;-147.06;56.29
21594;BME280;10959;51.328;7.322;2023-05-08T09:27:24;73862.16;;;-147.06;56.51
21594;BME280;10959;51.328;7.322;2023-05-08T09:29:58;73868.31;;;-147.06;56.32
21594;BME280;10959;51.328;7.322;2023-05-08T09:32:25;73853.97;;;-147.06;56.57
21594;BME280;10959;51.328;7.322;2023-05-08T09:34:51;73847.81;;;-147.06;56.22
21594;BME280;10959;51.328;7.322;2023-05-08T09:37:18;73843.72;;;-147.06;56.59
21594;BME280;10959;51.328;7.322;2023-05-08T09:39:45;73839.63;;;-147.06;56.61
21594;BME280;10959;51.328;7.322;2023-05-08T09:42:13;73839.63;;;-147.06;56.43
21594;BME280;10959;51.328;7.322;2023-05-08T09:44:44;73835.53;;;-147.06;56.09
21594;BME280;10959;51.328;7.322;2023-05-08T09:47:12;73839.63;;;-147.06;55.88
21594;BME280;10959;51.328;7.322;2023-05-08T09:49:39;73862.16;;;-147.06;55.79
21594;BME280;10959;51.328;7.322;2023-05-08T09:52:21;73864.19;;;-147.06;nan
21594;BME280;10959;51.328;7.322;2023-05-08T09:54:48;73864.19;;;-147.06;56.33
21594;BME280;10959;51.328;7.322;2023-05-08T09:57:22;73853.97;;;-147.06;56.04
21594;BME280;10959;51.328;7.322;2023-05-08T09:59:49;73856.00;;;-147.06;55.85
21594;BME280;10959;51.328;7.322;2023-05-08T10:02:15;73847.81;;;-147.06;56.07
21594;BME280;10959;51.328;7.322;2023-05-08T10:04:44;73839.63;;;-147.06;55.67
21594;BME280;10959;51.328;7.322;2023-05-08T10:07:11;73835.53;;;-147.06;55.20
21594;BME280;10959;51.328;7.322;2023-05-08T10:09:37;73837.56;;;-147.06;55.20
21594;BME280;10959;51.328;7.322;2023-05-08T10:12:04;73843.72;;;-147.06;54.73
21594;BME280;10959;51.328;7.322;2023-05-08T10:14:32;73847.81;;;-147.06;54.75
21594;BME280;10959;51.328;7.322;2023-05-08T10:17:00;73860.09;;;-147.06;54.87
21594;BME280;10959;51.328;7.322;2023-05-08T10:19:31;73860.09;;;-147.06;54.94
21594;BME280;10959;51.328;7.322;2023-05-08T10:21:57;73851.91;;;-147.06;54.80
21594;BME280;10959;51.328;7.322;2023-05-08T10:24:29;73847.81;;;-147.06;54.92
21594;BME280;10959;51.328;7.322;2023-05-08T10:29:46;73851.91;;;-147.06;54.99
21594;BME280;10959;51.328;7.322;2023-05-08T10:32:18;73831.44;;;-147.06;54.70
21594;BME280;10959;51.328;7.322;2023-05-08T10:34:48;73831.44;;;-147.06;55.01
21594;BME280;10959;51.328;7.322;2023-05-08T10:37:17;73827.34;;;-147.06;54.62
21594;BME280;10959;51.328;7.322;2023-05-08T10:39:45;73831.44;;;-147.06;54.24
21594;BME280;10959;51.328;7.322;2023-05-08T10:42:12;73831.44;;;-147.06;54.23
21594;BME280;10959;51.328;7.322;2023-05-08T10:44:39;73835.53;;;-147.06;54.00
21594;BME280;10959;51.328;7.322;2023-05-08T10:47:11;73851.91;;;-147.06;53.69
21594;BME280;10959;51.328;7.322;2023-05-08T10:49:47;73845.78;;;-147.06;53.67
21594;BME280;10959;51.328;7.322;2023-05-08T10:52:17;73835.53;;;-147.06;53.30
21594;BME280;10959;51.328;7.322;2023-05-08T10:54:58;73839.63;;;-147.06;53.47
21594;BME280;10959;51.328;7.322;2023-05-08T10:57:31;73819.13;;;-147.06;53.90
21594;BME280;10959;51.328;7.322;2023-05-08T10:59:58;73823.22;;;-147.06;53.45
21594;BME280;10959;51.328;7.322;2023-05-08T11:02:27;73804.78;;;-147.06;53.35
21594;BME280;10959;51.328;7.322;2023-05-08T11:04:54;73790.47;;;-147.06;53.86
21594;BME280;10959;51.328;7.322;2023-05-08T11:07:29;73782.25;;;-147.06;53.95
21594;BME280;10959;51.328;7.322;2023-05-08T11:10:05;73774.06;;;-147.06;53.74
21594;BME280;10959;51.328;7.322;2023-05-08T11:12:32;73749.50;;;-147.06;53.65
21594;BME280;10959;51.328;7.322;2023-05-08T11:15:02;73737.19;;;-147.06;53.03
21594;BME280;10959;51.328;7.322;2023-05-08T11:17:32;73733.09;;;-147.06;53.14
21594;BME280;10959;51.328;7.322;2023-05-08T11:20:00;73718.75;;;-147.06;53.44
21594;BME280;10959;51.328;7.322;2023-05-08T11:22:28;73700.31;;;-147.06;53.69
21594;BME280;10959;51.328;7.322;2023-05-08T11:24:57;73683.94;;;-147.06;53.27
21594;BME280;10959;51.328;7.322;2023-05-08T11:27:32;73708.53;;;-147.06;53.15
21594;BME280;10959;51.328;7.322;2023-05-08T11:30:19;73733.09;;;-147.06;52.73
21594;BME280;10959;51.328;7.322;2023-05-08T11:33:10;73724.91;;;-147.06;52.78
21594;BME280;10959;51.328;7.322;2023-05-08T11:35:43;73716.72;;;-147.06;52.87
21594;BME280;10959;51.328;7.322;2023-05-08T11:38:13;73702.38;;;-147.06;53.13
21594;BME280;10959;51.328;7.322;2023-05-08T11:40:45;73704.44;;;-147.06;53.28
21594;BME280;10959;51.328;7.322;2023-05-08T11:43:22;73720.81;;;-147.06;52.88
21594;BME280;10959;51.328;7.322;2023-05-08T11:45:50;73712.63;;;-147.06;53.21
21594;BME280;10959;51.328;7.322;2023-05-08T11:48:19;73729.00;;;-147.06;52.80
21594;BME280;10959;51.328;7.322;2023-05-08T11:50:46;73720.81;;;-147.06;53.83
21594;BME280;10959;51.328;7.322;2023-05-08T11:53:12;73696.22;;;-147.06;53.60
21594;BME280;10959;51.328;7.322;2023-05-08T11:55:39;73679.84;;;-147.06;53.43
21594;BME280;10959;51.328;7.322;2023-05-08T11:58:10;73696.22;;;-147.06;52.44
21594;BME280;10959;51.328;7.322;2023-05-08T12:00:39;73686.00;;;-147.06;53.10
21594;BME280;10959;51.328;7.322;2023-05-08T12:03:06;73671.66;;;-147.06;53.28
21594;BME280;10959;51.328;7.322;2023-05-08T12:05:34;73659.34;;;-147.06;53.07
21594;BME280;10959;51.328;7.322;2023-05-08T12:08:00;73655.25;;;-147.06;52.49
21594;BME280;10959;51.328;7.322;2023-05-08T12:10:28;73655.25;;;-147.06;52.63
21594;BME280;10959;51.328;7.322;2023-05-08T12:12:55;73651.16;;;-147.06;52.83
21594;BME280;10959;51.328;7.322;2023-05-08T12:15:21;73636.81;;;-147.06;52.47
21594;BME280;10959;51.328;7.322;2023-05-08T12:17:47;73632.72;;;-147.06;52.89
21594;BME280;10959;51.328;7.322;2023-05-08T12:20:16;73618.41;;;-147.06;53.03
21594;BME280;10959;51.328;7.322;2023-05-08T12:22:50;73622.50;;;-147.06;52.79
21594;BME280;10959;51.328;7.322;2023-05-08T12:25:17;73614.28;;;-147.06;51.86
21594;BME280;10959;51.328;7.322;2023-05-08T12:27:44;73602.00;;;-147.06;52.08
21594;BME280;10959;51.328;7.322;2023-05-08T12:30:12;73583.56;;;-147.06;52.07
21594;BME280;10959;51.328;7.322;2023-05-08T12:32:40;73579.47;;;-147.06;51.76
21594;BME280;10959;51.328;7.322;2023-05-08T12:35:08;73573.31;;;-147.06;51.54
21594;BME280;10959;51.328;7.322;2023-05-08T12:37:35;73573.31;;;-147.06;51.20
21594;BME280;10959;51.328;7.322;2023-05-08T12:40:04;73573.31;;;-147.06;50.91
21594;BME280;10959;51.328;7.322;2023-05-08T12:42:43;73604.06;;;-147.06;50.94
21594;BME280;10959;51.328;7.322;2023-05-08T12:45:16;73577.44;;;-147.06;51.16
21594;BME280;10959;51.328;7.322;2023-05-08T12:47:44;73556.94;;;-147.06;50.60
21594;BME280;10959;51.328;7.322;2023-05-08T12:50:13;73556.94;;;-147.06;51.01
21594;BME280;10959;51.328;7.322;2023-05-08T12:52:39;73540.56;;;-147.06;51.80